Time;durP1;ratioP1;P1;durP2;ratioP2;P2;SDS_P1;SDS_P2;PMS_P1;PMS_P2;Temp;Humidity;BMP_temperature;BMP_pressure;BME280_temperature;BME280_humidity;BME280_pressure;Samples;Min_cycle;Max_cycle;Signal;HPM_P1;HPM_P2
2022/07/05 00:00:35;;;;;;;5.57;3.97;;;;;;;15.72;67.26;102051.31;5099801;28;20020;-79
2022/07/05 00:03:01;;;;;;;4.60;4.20;;;;;;;15.66;67.67;102056.31;5092279;28;20025;-78
2022/07/05 00:05:26;;;;;;;6.25;3.95;;;;;;;15.66;67.59;102054.47;5097894;28;20111;-78
2022/07/05 00:07:52;;;;;;;6.00;4.13;;;;;;;15.60;67.69;102051.44;5099048;28;20040;-79
2022/07/05 00:10:18;;;;;;;5.13;4.03;;;;;;;15.58;68.13;102053.38;5080972;28;20479;-80
2022/07/05 00:12:43;;;;;;;7.25;4.22;;;;;;;15.53;68.34;102048.38;5099381;28;20497;-78
2022/07/05 00:15:09;;;;;;;6.13;3.95;;;;;;;15.48;68.44;102047.91;5098484;28;20027;-77
2022/07/05 00:17:34;;;;;;;5.40;4.30;;;;;;;15.38;68.15;102037.06;5098511;28;20424;-78
2022/07/05 00:20:00;;;;;;;5.03;4.38;;;;;;;15.34;68.77;102038.28;5128569;22;20065;-78
2022/07/05 00:22:25;;;;;;;4.93;4.05;;;;;;;15.29;69.12;102037.78;5058890;28;20041;-78
2022/07/05 00:24:50;;;;;;;4.43;3.92;;;;;;;15.26;69.39;102041.53;5058556;28;20542;-78
2022/07/05 00:27:16;;;;;;;4.87;4.10;;;;;;;15.26;69.16;102038.88;5059254;28;20517;-78
2022/07/05 00:29:41;;;;;;;4.95;4.00;;;;;;;15.19;69.39;102040.31;5058134;28;20287;-78
2022/07/05 00:32:07;;;;;;;5.30;3.97;;;;;;;15.13;69.52;102041.63;5059169;28;20514;-78
2022/07/05 00:34:32;;;;;;;3.88;3.58;;;;;;;15.12;69.07;102039.06;5058806;28;20379;-78
2022/07/05 00:36:58;;;;;;;4.38;3.97;;;;;;;15.03;69.53;102039.78;5059639;28;20106;-77
2022/07/05 00:39:23;;;;;;;5.88;4.43;;;;;;;15.00;69.94;102038.19;5059001;28;20060;-77
2022/07/05 00:41:48;;;;;;;5.25;4.03;;;;;;;14.99;70.40;102033.81;5058080;28;20028;-78
2022/07/05 00:44:14;;;;;;;6.60;4.05;;;;;;;14.95;70.41;102029.66;5058312;28;20028;-77
2022/07/05 00:46:41;;;;;;;4.32;3.80;;;;;;;14.89;70.81;102036.34;5058757;28;20024;-77
2022/07/05 00:49:06;;;;;;;5.25;3.95;;;;;;;14.86;70.82;102027.69;5059634;28;20045;-77
2022/07/05 00:51:36;;;;;;;5.50;3.80;;;;;;;14.81;71.10;102030.72;5048975;28;20076;-77
2022/07/05 00:54:01;;;;;;;;;;;;;;;14.97;67.68;102039.28;5056512;28;20021;-77
2022/07/05 00:56:27;;;;;;;5.85;3.95;;;;;;;14.82;70.67;102035.06;5056641;28;20329;-77
2022/07/05 00:58:53;;;;;;;4.72;3.72;;;;;;;14.77;71.17;102034.56;5056408;28;20040;-77
2022/07/05 01:01:18;;;;;;;6.03;3.75;;;;;;;14.69;71.59;102032.50;5056768;28;20472;-77
2022/07/05 01:03:44;;;;;;;5.72;4.22;;;;;;;14.67;71.32;102038.91;5052296;28;20033;-78
2022/07/05 01:06:15;;;;;;;4.65;3.80;;;;;;;14.65;71.08;102035.50;5054100;28;20017;-78
2022/07/05 01:08:42;;;;;;;5.82;4.13;;;;;;;14.59;71.71;102040.34;5059123;28;20040;-77
2022/07/05 01:11:09;;;;;;;5.45;4.40;;;;;;;14.57;71.68;102036.03;5059023;28;20033;-77
2022/07/05 01:13:36;;;;;;;4.93;4.30;;;;;;;14.51;72.44;102050.72;5063105;28;20506;-77
2022/07/05 01:16:03;;;;;;;6.85;4.70;;;;;;;14.48;72.28;102040.25;5063349;28;20032;-77
2022/07/05 01:18:28;;;;;;;4.47;4.07;;;;;;;14.50;72.35;102041.00;5064783;28;20029;-78
2022/07/05 01:20:55;;;;;;;5.20;3.92;;;;;;;14.46;71.83;102036.84;5065942;28;20041;-77
2022/07/05 01:23:21;;;;;;;7.03;4.50;;;;;;;14.39;72.54;102041.81;5059045;28;20021;-77
2022/07/05 01:25:48;;;;;;;4.57;4.22;;;;;;;14.34;72.25;102040.41;5053748;28;20040;-77
2022/07/05 01:28:14;;;;;;;4.70;4.30;;;;;;;14.37;72.27;102042.88;5060334;28;20079;-77
2022/07/05 01:30:40;;;;;;;5.47;4.50;;;;;;;14.33;72.55;102042.25;5058308;28;20029;-77
2022/07/05 01:33:06;;;;;;;5.03;4.53;;;;;;;14.33;72.22;102042.25;5058944;28;20025;-77
2022/07/05 01:35:32;;;;;;;4.90;4.30;;;;;;;14.24;72.41;102041.09;5057205;28;20120;-78
2022/07/05 01:37:57;;;;;;;5.00;4.40;;;;;;;14.24;72.06;102043.78;5056899;28;20048;-77
2022/07/05 01:40:23;;;;;;;5.07;4.53;;;;;;;14.20;72.55;102044.94;5057470;28;20025;-76
2022/07/05 01:42:52;;;;;;;4.97;4.55;;;;;;;14.15;72.98;102043.59;5057112;28;20039;-78
2022/07/05 01:48:04;;;;;;;6.60;4.55;;;;;;;14.12;73.14;102043.81;5056784;28;20407;-77
2022/07/05 01:50:34;;;;;;;7.85;5.13;;;;;;;14.01;73.50;102039.25;5053925;28;20171;-77
2022/07/05 01:53:03;;;;;;;5.25;4.82;;;;;;;14.02;73.20;102041.81;5047868;28;20017;-78
2022/07/05 01:55:28;;;;;;;5.10;4.68;;;;;;;13.99;73.25;102041.16;5059686;28;20029;-78
2022/07/05 01:57:53;;;;;;;5.50;5.00;;;;;;;13.95;73.23;102039.69;5059635;28;20364;-78
2022/07/05 02:00:19;;;;;;;9.93;5.35;;;;;;;13.95;73.56;102037.88;5057952;28;20037;-77
2022/07/05 02:02:46;;;;;;;6.28;5.10;;;;;;;13.91;73.58;102049.75;5057532;28;20028;-77
2022/07/05 02:05:11;;;;;;;7.57;4.60;;;;;;;13.87;73.66;102041.09;5072991;28;20059;-77
2022/07/05 02:07:37;;;;;;;5.53;4.90;;;;;;;13.88;73.57;102041.94;5057026;28;20037;-77
2022/07/05 02:10:03;;;;;;;5.32;4.93;;;;;;;13.85;73.28;102031.47;5058455;28;20035;-78
2022/07/05 02:12:29;;;;;;;7.63;4.82;;;;;;;13.83;73.66;102036.09;5059370;28;20479;-77
2022/07/05 02:14:54;;;;;;;6.50;4.47;;;;;;;13.79;73.78;102031.91;5052117;28;20029;-77
2022/07/05 02:17:19;;;;;;;6.78;4.70;;;;;;;13.78;73.64;102035.56;5055722;28;20721;-77
2022/07/05 02:19:44;;;;;;;6.07;4.40;;;;;;;13.80;73.66;102038.97;5056878;28;20056;-77
2022/07/05 02:22:11;;;;;;;5.50;4.60;;;;;;;13.76;73.63;102033.00;5058499;28;20399;-77
2022/07/05 02:24:36;;;;;;;8.07;4.80;;;;;;;13.73;73.44;102030.53;5059003;28;20033;-77
2022/07/05 02:27:01;;;;;;;7.43;5.07;;;;;;;13.73;73.08;102035.03;5058327;28;20472;-78
2022/07/05 02:29:27;;;;;;;5.45;4.88;;;;;;;13.70;73.19;102033.44;5057431;28;20032;-78
2022/07/05 02:31:52;;;;;;;5.53;5.10;;;;;;;13.66;73.65;102032.78;5058264;28;20029;-78
2022/07/05 02:34:17;;;;;;;6.80;4.78;;;;;;;13.63;74.00;102033.00;5057785;28;20039;-77
2022/07/05 02:36:43;;;;;;;7.03;5.10;;;;;;;13.59;73.24;102036.00;5056100;28;20112;-77
2022/07/05 02:39:08;;;;;;;6.35;5.07;;;;;;;13.60;73.40;102035.03;5057629;28;20025;-77
2022/07/05 02:41:34;;;;;;;5.93;5.32;;;;;;;13.56;73.62;102036.22;5058002;28;20017;-78
2022/07/05 02:43:59;;;;;;;5.78;5.15;;;;;;;13.56;72.98;102038.91;5057959;28;20071;-78
2022/07/05 02:46:24;;;;;;;5.77;5.10;;;;;;;13.53;73.42;102033.78;5058239;28;20084;-78
2022/07/05 02:48:50;;;;;;;7.22;4.90;;;;;;;13.48;73.99;102034.94;5057470;28;20295;-78
2022/07/05 02:51:16;;;;;;;6.82;5.70;;;;;;;13.43;73.48;102039.75;5057329;28;20036;-77
2022/07/05 02:53:41;;;;;;;6.88;5.10;;;;;;;13.43;73.70;102039.75;5058243;28;20025;-78
2022/07/05 02:56:07;;;;;;;8.00;5.40;;;;;;;13.41;73.69;102044.34;5057841;28;20055;-78
2022/07/05 02:58:32;;;;;;;5.82;5.20;;;;;;;13.39;74.10;102051.59;5055897;28;20021;-78
2022/07/05 03:00:57;;;;;;;7.15;5.60;;;;;;;13.38;73.80;102046.38;5057680;28;20041;-77
2022/07/05 03:03:23;;;;;;;6.45;5.70;;;;;;;13.39;73.78;102053.41;5057451;28;20036;-77
2022/07/05 03:05:49;;;;;;;7.75;6.40;;;;;;;13.39;73.86;102054.28;5042516;28;20032;-78
2022/07/05 03:08:14;;;;;;;6.47;5.45;;;;;;;13.38;74.16;102057.91;5056229;28;20057;-77
2022/07/05 03:10:39;;;;;;;6.80;5.50;;;;;;;13.35;74.14;102057.25;5056387;28;20082;-78
2022/07/05 03:13:05;;;;;;;7.05;5.97;;;;;;;13.32;74.43;102064.53;5055243;28;20037;-78
2022/07/05 03:15:30;;;;;;;6.38;5.45;;;;;;;13.23;74.24;102057.09;5057476;28;20120;-77
2022/07/05 03:17:55;;;;;;;6.68;6.00;;;;;;;13.27;74.44;102057.75;5056389;28;20556;-77
2022/07/05 03:20:21;;;;;;;6.47;5.75;;;;;;;13.19;74.96;102063.63;5057035;28;20083;-78
2022/07/05 03:22:46;;;;;;;10.00;5.93;;;;;;;13.16;74.96;102063.81;5056427;28;20479;-77
2022/07/05 03:25:11;;;;;;;6.25;5.65;;;;;;;13.18;74.86;102074.41;5057438;28;20029;-77
2022/07/05 03:27:37;;;;;;;9.27;5.67;;;;;;;13.11;74.80;102072.13;5057959;28;20086;-78
2022/07/05 03:30:04;;;;;;;10.38;6.47;;;;;;;13.08;75.32;102068.81;5057327;28;20290;-77
2022/07/05 03:32:29;;;;;;;10.18;6.22;;;;;;;13.06;75.51;102076.09;5057723;28;20021;-77
2022/07/05 03:34:55;;;;;;;6.78;5.60;;;;;;;13.07;75.53;102069.78;5057162;28;20028;-78
2022/07/05 03:37:20;;;;;;;7.45;6.10;;;;;;;13.04;75.71;102077.97;5057695;28;20471;-77
2022/07/05 03:39:45;;;;;;;7.32;6.60;;;;;;;13.06;75.58;102070.75;5057241;28;20029;-78
2022/07/05 03:42:11;;;;;;;9.50;6.60;;;;;;;13.03;75.41;102073.63;5058066;28;20044;-77
2022/07/05 03:44:36;;;;;;;9.10;6.00;;;;;;;13.00;75.92;102074.66;5057238;28;20063;-78
2022/07/05 03:47:01;;;;;;;9.85;6.00;;;;;;;13.03;76.04;102078.94;5059143;28;20531;-77
2022/07/05 03:49:27;;;;;;;9.02;6.22;;;;;;;13.01;76.45;102083.53;5059380;28;20060;-77
2022/07/05 03:51:52;;;;;;;9.18;6.05;;;;;;;12.99;76.72;102075.63;5058383;28;20056;-77
2022/07/05 03:54:18;;;;;;;6.88;6.18;;;;;;;13.01;76.96;102086.22;5059110;28;20017;-77
2022/07/05 03:56:43;;;;;;;7.28;5.90;;;;;;;13.01;76.87;102088.88;5058998;28;20021;-79
2022/07/05 03:59:09;;;;;;;9.80;6.32;;;;;;;13.02;76.92;102087.91;5058852;28;20021;-78
2022/07/05 04:01:34;;;;;;;9.55;6.32;;;;;;;13.02;76.65;102086.06;5058102;28;20056;-79
2022/07/05 04:03:59;;;;;;;8.25;6.72;;;;;;;13.02;77.03;102082.56;5060369;28;20032;-78
2022/07/05 04:06:25;;;;;;;13.02;6.18;;;;;;;13.04;76.77;102089.53;5061888;28;20028;-78
2022/07/05 04:08:50;;;;;;;8.13;6.50;;;;;;;13.06;77.26;102090.25;5062265;28;20029;-79
2022/07/05 04:11:16;;;;;;;11.10;6.70;;;;;;;13.05;77.67;102101.03;5062698;28;20025;-78
2022/07/05 04:13:42;;;;;;;10.23;6.75;;;;;;;13.05;77.66;102090.38;5062541;28;20109;-79
2022/07/05 04:16:08;;;;;;;7.30;6.60;;;;;;;13.13;77.19;102099.56;5062963;28;20471;-79
2022/07/05 04:18:34;;;;;;;9.45;6.78;;;;;;;13.16;77.89;102103.00;5059994;28;20033;-78
2022/07/05 04:20:59;;;;;;;9.40;7.63;;;;;;;13.16;77.71;102098.50;5059397;28;20025;-79
2022/07/05 04:23:24;;;;;;;7.47;6.50;;;;;;;13.22;77.26;102100.78;5061473;28;20104;-79
2022/07/05 04:25:50;;;;;;;11.15;7.22;;;;;;;13.22;77.41;102100.78;5061099;28;20035;-79
2022/07/05 04:28:15;;;;;;;11.40;6.88;;;;;;;13.27;76.99;102095.97;5059756;28;20028;-78
2022/07/05 04:30:41;;;;;;;9.52;7.15;;;;;;;13.32;77.82;102101.00;5060334;28;20059;-78
2022/07/05 04:33:06;;;;;;;7.22;6.50;;;;;;;13.38;77.51;102095.25;5060369;28;20039;-77
2022/07/05 04:35:33;;;;;;;9.55;8.50;;;;;;;13.40;77.12;102096.00;5060679;28;20040;-78
2022/07/05 04:37:58;;;;;;;8.45;7.60;;;;;;;13.43;77.38;102090.44;5060996;28;20040;-78
2022/07/05 04:40:23;;;;;;;10.13;7.07;;;;;;;13.47;77.57;102091.97;5061021;28;20021;-78
2022/07/05 04:42:48;;;;;;;9.73;7.47;;;;;;;13.54;77.19;102096.84;5061633;28;20053;-78
2022/07/05 04:45:14;;;;;;;10.43;7.63;;;;;;;13.54;76.75;102096.84;5061427;28;20017;-78
2022/07/05 04:47:39;;;;;;;10.27;7.65;;;;;;;13.53;76.69;102097.84;5061668;28;20021;-78
2022/07/05 04:50:05;;;;;;;9.77;8.73;;;;;;;13.54;77.01;102094.19;5061911;28;20159;-78
2022/07/05 04:52:31;;;;;;;9.90;8.45;;;;;;;13.58;76.93;102093.03;5062686;28;20063;-78
2022/07/05 04:54:56;;;;;;;9.80;7.65;;;;;;;13.62;77.28;102091.84;5060480;28;20345;-78
2022/07/05 04:57:22;;;;;;;14.07;8.95;;;;;;;13.69;76.88;102090.47;5059621;28;20045;-79
2022/07/05 04:59:47;;;;;;;9.25;8.23;;;;;;;13.76;77.30;102097.09;5059164;28;20483;-79
2022/07/05 05:02:12;;;;;;;12.20;8.35;;;;;;;13.82;76.88;102102.00;5060125;28;20391;-78
2022/07/05 05:04:37;;;;;;;8.90;7.88;;;;;;;13.91;76.39;102094.31;5060295;28;20029;-78
2022/07/05 05:07:03;;;;;;;8.98;8.13;;;;;;;13.97;77.00;102091.19;5062548;28;20021;-78
2022/07/05 05:09:29;;;;;;;11.95;8.70;;;;;;;14.07;76.60;102090.44;5062719;28;20091;-78
2022/07/05 05:11:54;;;;;;;9.60;8.20;;;;;;;14.14;76.59;102093.50;5061264;28;20398;-78
2022/07/05 05:14:19;;;;;;;11.07;8.27;;;;;;;14.27;76.06;102098.81;5060710;28;20040;-78
2022/07/05 05:16:44;;;;;;;9.65;8.65;;;;;;;14.32;76.14;102091.34;5049467;28;20037;-78
2022/07/05 05:19:10;;;;;;;11.20;8.88;;;;;;;14.40;75.16;102091.59;5062533;28;20498;-79
2022/07/05 05:21:35;;;;;;;11.10;8.75;;;;;;;14.43;75.70;102096.72;5064234;28;20456;-78
2022/07/05 05:24:01;;;;;;;10.15;9.15;;;;;;;14.52;75.66;102094.34;5065781;28;20052;-78
2022/07/05 05:26:27;;;;;;;10.43;9.30;;;;;;;14.58;75.51;102105.44;5068817;28;20041;-78
2022/07/05 05:28:52;;;;;;;11.15;9.48;;;;;;;14.63;75.14;102113.16;5075745;28;20021;-78
2022/07/05 05:31:18;;;;;;;10.85;9.40;;;;;;;14.72;74.86;102106.28;5074039;28;20088;-79
2022/07/05 05:33:44;;;;;;;11.77;10.20;;;;;;;14.78;75.18;102108.50;5074549;28;20021;-79
2022/07/05 05:36:09;;;;;;;11.02;9.93;;;;;;;14.85;74.70;102116.94;5073530;28;20080;-80
2022/07/05 05:38:35;;;;;;;11.50;10.07;;;;;;;14.91;74.92;102116.47;5069724;28;20058;-79
2022/07/05 05:41:00;;;;;;;10.88;9.73;;;;;;;14.98;74.37;102125.75;5061675;28;20029;-79
2022/07/05 05:43:25;;;;;;;11.95;9.98;;;;;;;15.04;75.00;102125.28;5061859;28;20132;-79
2022/07/05 05:45:51;;;;;;;12.13;9.45;;;;;;;15.11;74.59;102131.03;5062273;28;20025;-79
2022/07/05 05:48:16;;;;;;;13.43;10.52;;;;;;;15.16;74.60;102123.50;5063731;28;20538;-79
2022/07/05 05:50:42;;;;;;;11.00;9.98;;;;;;;15.24;74.35;102125.59;5060323;28;20090;-79
2022/07/05 05:53:08;;;;;;;11.52;10.35;;;;;;;15.31;73.63;102134.88;5058883;28;20021;-79
2022/07/05 05:55:33;;;;;;;13.48;10.43;;;;;;;15.34;73.89;102140.84;5057204;28;20043;-78
2022/07/05 05:58:13;;;;;;;12.73;9.85;;;;;;;15.40;73.70;102131.47;5054043;28;20037;-79
2022/07/05 06:00:38;;;;;;;12.85;10.82;;;;;;;15.39;73.50;102135.16;5059557;28;20029;-78
2022/07/05 06:03:04;;;;;;;12.85;11.25;;;;;;;15.50;73.22;102140.53;5056601;28;20037;-79
2022/07/05 06:05:29;;;;;;;12.57;10.65;;;;;;;15.58;73.31;102139.09;5067980;28;20033;-80
2022/07/05 06:07:56;;;;;;;12.32;10.60;;;;;;;15.64;73.17;102136.78;5066603;28;20025;-81
2022/07/05 06:10:28;;;;;;;14.98;11.02;;;;;;;15.77;73.08;102143.88;5066119;28;20147;-80
2022/07/05 06:12:56;;;;;;;12.40;10.63;;;;;;;15.83;72.91;102141.56;5068106;28;20025;-82
2022/07/05 06:15:22;;;;;;;14.57;10.73;;;;;;;15.92;72.37;102140.03;5066058;28;20017;-80
2022/07/05 06:17:50;;;;;;;12.82;10.45;;;;;;;16.01;71.67;102143.78;5056942;28;20371;-79
2022/07/05 06:20:28;;;;;;;13.48;11.07;;;;;;;16.13;71.36;102141.97;5061319;28;20048;-80
2022/07/05 06:22:54;;;;;;;13.02;10.13;;;;;;;16.33;70.83;102146.56;5066044;28;20033;-79
2022/07/05 06:25:20;;;;;;;12.55;10.32;;;;;;;16.41;70.54;102148.66;5063207;28;20021;-80
2022/07/05 06:27:48;;;;;;;12.13;10.13;;;;;;;16.49;70.45;102145.31;5061867;28;20041;-79
2022/07/05 06:30:16;;;;;;;12.18;9.27;;;;;;;16.65;69.70;102146.66;5058230;28;20065;-79
2022/07/05 06:32:45;;;;;;;14.77;10.60;;;;;;;16.78;69.66;102149.16;5050606;28;20017;-80
2022/07/05 06:35:12;;;;;;;11.15;9.23;;;;;;;16.87;69.03;102157.47;5058116;28;20017;-81
2022/07/05 06:37:47;;;;;;;10.90;9.73;;;;;;;17.00;69.56;102156.34;5057514;28;20376;-79
2022/07/05 06:40:30;;;;;;;14.68;10.32;;;;;;;17.14;68.80;102157.88;5061586;28;20044;-80
2022/07/05 06:42:58;;;;;;;11.07;9.85;;;;;;;17.28;69.21;102155.84;5058682;28;20029;-79
2022/07/05 06:45:24;;;;;;;10.98;9.15;;;;;;;17.44;68.12;102156.25;5062728;28;20032;-80
2022/07/05 06:48:02;;;;;;;12.80;9.82;;;;;;;17.62;67.95;102161.03;5066849;28;20044;-79
2022/07/05 06:50:29;;;;;;;12.95;9.32;;;;;;;17.81;67.46;102152.25;5070964;28;20571;-78
2022/07/05 06:52:54;;;;;;;10.52;8.93;;;;;;;17.93;67.15;102156.59;5070957;28;20096;-79
2022/07/05 06:55:22;;;;;;;11.75;9.32;;;;;;;18.07;66.52;102161.63;5068781;28;20081;-80
2022/07/05 06:57:51;;;;;;;18.50;10.07;;;;;;;18.13;66.65;102165.59;5061035;28;20049;-78
2022/07/05 07:00:16;;;;;;;;;;;;;;;18.35;67.04;102159.16;5054899;28;20071;-80
2022/07/05 07:02:41;;;;;;;13.15;9.13;;;;;;;18.54;65.65;102155.69;5054118;28;19959;-80
2022/07/05 07:05:08;;;;;;;11.13;9.02;;;;;;;18.82;64.78;102154.03;5054239;28;20459;-79
2022/07/05 07:10:18;;;;;;;11.13;7.57;;;;;;;19.59;63.27;102157.72;5054514;28;20044;-80
2022/07/05 07:12:43;;;;;;;8.90;7.50;;;;;;;19.68;62.13;102153.28;5054705;28;20421;-80
2022/07/05 07:15:09;;;;;;;12.82;7.90;;;;;;;19.77;61.54;102168.66;5056876;28;20108;-79
2022/07/05 07:17:35;;;;;;;9.68;6.63;;;;;;;19.95;60.93;102159.78;5058637;28;20115;-79
2022/07/05 07:20:00;;;;;;;11.77;7.20;;;;;;;20.02;61.45;102152.81;5057206;28;20043;-78
2022/07/05 07:22:25;;;;;;;11.90;6.95;;;;;;;20.13;61.13;102162.56;5055689;28;20259;-79
2022/07/05 07:24:51;;;;;;;15.38;6.65;;;;;;;20.15;61.44;102163.25;5056151;28;20029;-79
2022/07/05 07:27:16;;;;;;;12.70;7.32;;;;;;;20.14;61.55;102164.28;5052771;28;20043;-79
2022/07/05 07:29:42;;;;;;;9.13;7.13;;;;;;;20.18;60.92;102162.13;5057214;28;20043;-79
2022/07/05 07:32:08;;;;;;;12.52;7.40;;;;;;;20.24;61.34;102161.53;5049054;28;20029;-79
2022/07/05 07:34:34;;;;;;;11.70;6.70;;;;;;;20.39;61.29;102165.44;5058145;28;20029;-79
2022/07/05 07:37:00;;;;;;;18.48;6.07;;;;;;;20.34;60.61;102165.88;5055484;28;20029;-79
2022/07/05 07:39:26;;;;;;;14.27;6.53;;;;;;;20.47;60.41;102168.22;5057981;28;20391;-79
2022/07/05 07:41:52;;;;;;;12.10;6.18;;;;;;;20.48;61.05;102169.06;5060960;28;20565;-79
2022/07/05 07:44:18;;;;;;;9.85;6.18;;;;;;;20.50;61.42;102175.16;5060047;28;20028;-78
2022/07/05 07:46:44;;;;;;;9.75;6.28;;;;;;;20.60;60.11;102172.41;5059965;28;20566;-78
2022/07/05 07:49:10;;;;;;;12.65;6.22;;;;;;;20.62;60.56;102175.81;5061628;28;20071;-79
2022/07/05 07:51:36;;;;;;;8.15;4.93;;;;;;;;;;5048742;28;20029;-79
2022/07/05 07:54:01;;;;;;;10.15;5.15;;;;;;;20.87;60.92;102175.09;5056912;28;20095;-78
2022/07/05 07:56:27;;;;;;;10.15;5.47;;;;;;;20.89;59.82;102173.09;5054764;28;20021;-78
2022/07/05 07:58:53;;;;;;;15.57;5.55;;;;;;;20.93;59.94;102179.03;5060280;28;20033;-79
2022/07/05 08:01:18;;;;;;;12.93;4.88;;;;;;;21.05;59.96;102172.41;5055410;28;20407;-79
2022/07/05 08:03:44;;;;;;;14.00;5.05;;;;;;;21.19;59.61;102181.81;5055675;28;20162;-79
2022/07/05 08:06:11;;;;;;;12.73;5.22;;;;;;;21.27;58.65;102183.75;5052851;28;20033;-79
2022/07/05 08:08:40;;;;;;;13.90;6.68;;;;;;;21.27;58.19;102178.38;5056938;28;20021;-78
2022/07/05 08:11:09;;;;;;;12.45;6.43;;;;;;;21.26;59.18;102174.78;5053432;28;20147;-79
2022/07/05 08:13:34;;;;;;;16.63;6.53;;;;;;;21.32;58.13;102180.59;5058337;28;20031;-79
2022/07/05 08:16:00;;;;;;;9.80;6.00;;;;;;;21.33;58.68;102184.97;5058787;28;20283;-80
2022/07/05 08:23:55;;;;;;;14.10;6.82;;;;;;;21.59;58.79;102180.50;5044478;28;20044;-79
2022/07/05 08:26:21;;;;;;;10.80;7.00;;;;;;;21.60;58.39;102184.91;5055160;28;20025;-80
2022/07/05 08:28:47;;;;;;;17.77;8.88;;;;;;;21.60;58.98;102187.59;5053904;28;20040;-79
2022/07/05 08:31:13;;;;;;;12.50;7.43;;;;;;;21.62;57.29;102190.16;5056997;28;20100;-81
2022/07/05 08:33:38;;;;;;;13.48;7.45;;;;;;;21.77;57.46;102188.56;5057506;28;20128;-80
2022/07/05 08:36:04;;;;;;;17.48;7.68;;;;;;;21.76;57.49;102183.31;5073148;28;20025;-80
2022/07/05 08:38:29;;;;;;;11.80;6.38;;;;;;;21.91;56.95;102184.41;5057994;28;20024;-81
2022/07/05 08:40:56;;;;;;;14.65;7.03;;;;;;;22.01;56.30;102187.00;5057390;28;20029;-80
2022/07/05 08:43:27;;;;;;;12.73;7.38;;;;;;;22.10;56.96;102185.19;5056499;28;20033;-80
2022/07/05 08:45:53;;;;;;;13.05;6.85;;;;;;;22.13;56.66;102177.63;5058100;28;20025;-80
2022/07/05 08:48:20;;;;;;;11.77;6.78;;;;;;;22.35;55.53;102178.94;5058230;28;20452;-80
2022/07/05 08:50:50;;;;;;;11.30;5.68;;;;;;;22.39;55.49;102178.63;5056760;28;20029;-80
2022/07/05 08:53:18;;;;;;;9.68;5.78;;;;;;;22.58;54.13;102180.19;5059222;28;20096;-80
2022/07/05 08:55:44;;;;;;;8.18;5.10;;;;;;;22.85;53.24;102182.66;5058147;28;20077;-80
2022/07/05 08:58:10;;;;;;;12.52;5.85;;;;;;;23.41;51.77;102165.78;5056866;28;20159;-80
2022/07/05 09:00:37;;;;;;;10.27;5.45;;;;;;;23.82;52.18;102165.75;5057034;28;20033;-80
2022/07/05 09:03:03;;;;;;;12.35;5.38;;;;;;;23.94;51.24;102169.78;5057072;28;20025;-80
2022/07/05 09:05:31;;;;;;;8.63;4.82;;;;;;;24.20;48.86;102164.09;5056465;28;20068;-80
2022/07/05 09:07:59;;;;;;;10.27;4.53;;;;;;;24.29;48.75;102164.91;5055368;28;20058;-80
2022/07/05 09:10:30;;;;;;;11.02;4.60;;;;;;;24.52;49.35;102175.00;5055900;28;20025;-81
2022/07/05 09:12:56;;;;;;;8.27;5.18;;;;;;;24.54;46.95;102172.94;5055937;28;20029;-80
2022/07/05 09:15:23;;;;;;;8.70;4.07;;;;;;;24.54;47.45;102181.09;5055048;28;20037;-80
2022/07/05 09:17:48;;;;;;;6.63;3.90;;;;;;;24.81;48.01;102178.94;5056209;28;20040;-81
2022/07/05 09:20:15;;;;;;;6.47;3.45;;;;;;;24.78;44.47;102176.56;5056547;28;20068;-82
2022/07/05 09:22:47;;;;;;;8.95;3.50;;;;;;;24.73;45.76;102180.69;5043809;28;20056;-81
2022/07/05 09:25:20;;;;;;;9.73;3.72;;;;;;;24.98;45.06;102177.81;5046405;28;20426;-81
2022/07/05 09:27:54;;;;;;;7.72;3.80;;;;;;;25.25;45.40;102181.00;5041785;28;20026;-81
2022/07/05 09:30:28;;;;;;;10.80;4.15;;;;;;;25.54;44.41;102172.09;5055665;28;20352;-81
2022/07/05 09:33:10;;;;;;;8.13;3.90;;;;;;;25.89;43.75;102177.84;5055303;28;20074;-81
2022/07/05 09:35:40;;;;;;;7.07;2.55;;;;;;;26.47;41.20;102169.03;5060722;28;20750;-81
2022/07/05 09:38:15;;;;;;;8.68;3.92;;;;;;;26.63;42.14;102173.38;5056756;28;20096;-81
2022/07/05 09:40:52;;;;;;;9.50;4.35;;;;;;;26.91;41.30;102177.13;5043513;28;20475;-81
2022/07/05 09:43:19;;;;;;;8.10;3.88;;;;;;;27.22;39.64;102166.91;5057248;28;20033;-81
2022/07/05 09:45:54;;;;;;;7.45;2.78;;;;;;;27.53;39.50;102158.38;5054816;28;20039;-80
2022/07/05 09:48:20;;;;;;;5.18;2.40;;;;;;;27.48;37.52;102156.25;5055316;28;20036;-80
2022/07/05 09:50:45;;;;;;;6.70;2.40;;;;;;;27.32;37.73;102156.53;5055358;28;20029;-79
2022/07/05 09:53:13;;;;;;;9.20;2.53;;;;;;;27.40;36.80;102159.13;5055161;28;20033;-80
2022/07/05 09:55:40;;;;;;;4.60;2.15;;;;;;;27.30;36.72;102153.16;5055786;28;20040;-79
2022/07/05 09:58:06;;;;;;;6.60;2.30;;;;;;;27.06;36.13;102154.38;5061616;28;20074;-80
2022/07/05 10:00:34;;;;;;;4.72;2.00;;;;;;;27.01;34.92;102159.56;5059253;28;20486;-80
2022/07/05 10:03:02;;;;;;;6.97;2.33;;;;;;;26.88;36.94;102157.53;5055035;28;20074;-79
2022/07/05 10:05:32;;;;;;;4.45;2.15;;;;;;;26.60;38.71;102161.00;5057663;28;20025;-79
2022/07/05 10:08:00;;;;;;;6.82;2.85;;;;;;;26.31;38.88;102154.59;5060841;28;20028;-79
2022/07/05 10:10:30;;;;;;;14.40;3.20;;;;;;;26.21;40.26;102154.03;5058447;28;20047;-80
2022/07/05 10:13:01;;;;;;;9.10;3.00;;;;;;;25.98;39.69;102160.44;5057536;28;20043;-79
2022/07/05 10:15:29;;;;;;;7.28;3.00;;;;;;;26.06;38.10;102159.47;5055508;28;20040;-79
2022/07/05 10:18:22;;;;;;;8.53;2.80;;;;;;;26.46;39.93;102161.88;5057498;28;20070;-79
2022/07/05 10:20:51;;;;;;;7.60;3.00;;;;;;;26.36;38.53;102168.50;5048541;28;20470;-79
2022/07/05 10:23:18;;;;;;;13.02;3.20;;;;;;;26.19;39.26;102172.44;5055183;28;20041;-79
2022/07/05 10:25:49;;;;;;;7.53;3.10;;;;;;;26.03;38.40;102168.88;5054862;28;20109;-78
2022/07/05 10:28:19;;;;;;;6.68;2.80;;;;;;;26.42;39.13;102160.59;5057105;28;20029;-79
2022/07/05 10:30:46;;;;;;;5.32;2.47;;;;;;;26.46;39.22;102165.44;5056118;28;20092;-78
2022/07/05 10:33:16;;;;;;;7.35;2.60;;;;;;;26.56;40.19;102165.13;5057096;28;20394;-79
2022/07/05 10:35:45;;;;;;;5.35;2.20;;;;;;;26.34;38.69;102162.38;5060980;28;20046;-78
2022/07/05 10:38:11;;;;;;;6.63;2.45;;;;;;;26.43;37.51;102163.13;5063138;28;20081;-80
2022/07/05 10:40:39;;;;;;;5.80;2.25;;;;;;;26.49;39.26;102164.22;5058876;28;20045;-79
2022/07/05 10:43:06;;;;;;;6.93;2.45;;;;;;;26.69;40.02;102159.88;5055951;28;20715;-79
2022/07/05 10:45:36;;;;;;;7.70;2.35;;;;;;;26.99;39.08;102159.75;5055374;28;20468;-79
2022/07/05 10:48:12;;;;;;;7.55;2.60;;;;;;;27.45;38.04;102156.63;5055554;28;20040;-79
2022/07/05 10:50:58;;;;;;;5.15;2.30;;;;;;;27.84;38.05;102151.63;5053645;28;20025;-79
2022/07/05 10:53:27;;;;;;;2.92;1.70;;;;;;;27.84;36.08;102154.38;5042782;28;20060;-79
2022/07/05 10:55:56;;;;;;;4.82;1.90;;;;;;;27.84;36.79;102162.56;5055245;28;20413;-79
2022/07/05 10:58:28;;;;;;;6.82;2.40;;;;;;;27.54;34.89;102159.22;5055606;28;20029;-79
2022/07/05 11:01:11;;;;;;;7.72;2.40;;;;;;;27.50;36.55;102165.06;5055238;28;20022;-80
2022/07/05 11:04:04;;;;;;;6.32;2.17;;;;;;;27.48;37.00;102166.31;5045666;28;20025;-79
2022/07/05 11:06:33;;;;;;;5.25;1.80;;;;;;;27.02;35.45;102166.72;5025685;28;20079;-79
2022/07/05 11:08:59;;;;;;;3.45;1.98;;;;;;;27.17;35.19;102169.38;5056185;28;20394;-80
2022/07/05 11:11:31;;;;;;;8.75;2.00;;;;;;;26.88;35.94;102171.16;5057339;28;20047;-79
2022/07/05 11:13:59;;;;;;;7.07;2.30;;;;;;;26.75;36.31;102170.00;5056217;28;20033;-79
2022/07/05 11:16:25;;;;;;;13.57;2.38;;;;;;;26.65;36.30;102177.66;5059652;28;20047;-79
2022/07/05 11:19:03;;;;;;;5.97;1.95;;;;;;;26.35;37.02;102182.31;5054839;28;20032;-79
2022/07/05 11:21:29;;;;;;;4.05;1.92;;;;;;;26.38;37.82;102177.31;5053370;28;20052;-79
2022/07/05 11:24:24;;;;;;;4.50;1.90;;;;;;;26.31;37.98;102173.66;5052856;28;20368;-79
2022/07/05 11:26:54;;;;;;;4.47;2.13;;;;;;;26.05;37.79;102176.88;5051304;28;20463;-78
2022/07/05 11:29:48;;;;;;;6.60;1.98;;;;;;;25.96;38.44;102178.84;5053077;28;20104;-79
2022/07/05 11:32:29;;;;;;;3.55;1.80;;;;;;;25.79;38.04;102174.56;5052493;28;20017;-80